sensor_id;sensor_type;location;lat;lon;timestamp;P1;durP1;ratioP1;P2;durP2;ratioP2
22131;SDS011;11232;51.748;19.390;2024-01-30T00:01:56;26.43;;;11.30;;
22131;SDS011;11232;51.748;19.390;2024-01-30T00:04:22;26.97;;;11.37;;
22131;SDS011;11232;51.748;19.390;2024-01-30T00:06:48;27.77;;;11.73;;
22131;SDS011;11232;51.748;19.390;2024-01-30T00:09:14;25.87;;;11.33;;
22131;SDS011;11232;51.748;19.390;2024-01-30T00:11:40;30.80;;;12.23;;
22131;SDS011;11232;51.748;19.390;2024-01-30T00:14:06;27.33;;;10.90;;
22131;SDS011;11232;51.748;19.390;2024-01-30T00:16:32;28.60;;;11.20;;
22131;SDS011;11232;51.748;19.390;2024-01-30T00:18:58;26.53;;;11.37;;
22131;SDS011;11232;51.748;19.390;2024-01-30T00:21:24;28.90;;;11.33;;
22131;SDS011;11232;51.748;19.390;2024-01-30T00:23:50;27.23;;;11.33;;
22131;SDS011;11232;51.748;19.390;2024-01-30T00:26:16;29.67;;;11.30;;
22131;SDS011;11232;51.748;19.390;2024-01-30T00:28:42;29.60;;;11.27;;
22131;SDS011;11232;51.748;19.390;2024-01-30T00:31:09;28.20;;;10.37;;
22131;SDS011;11232;51.748;19.390;2024-01-30T00:33:38;27.53;;;10.30;;
22131;SDS011;11232;51.748;19.390;2024-01-30T00:36:05;31.00;;;11.17;;
22131;SDS011;11232;51.748;19.390;2024-01-30T00:38:31;27.07;;;10.67;;
22131;SDS011;11232;51.748;19.390;2024-01-30T00:40:58;28.57;;;10.83;;
22131;SDS011;11232;51.748;19.390;2024-01-30T00:43:24;25.50;;;10.17;;
22131;SDS011;11232;51.748;19.390;2024-01-30T00:45:50;31.27;;;10.43;;
22131;SDS011;11232;51.748;19.390;2024-01-30T00:48:17;26.70;;;10.30;;
22131;SDS011;11232;51.748;19.390;2024-01-30T00:50:43;26.90;;;10.33;;
22131;SDS011;11232;51.748;19.390;2024-01-30T00:53:09;24.17;;;10.37;;
22131;SDS011;11232;51.748;19.390;2024-01-30T00:55:36;25.03;;;10.03;;
22131;SDS011;11232;51.748;19.390;2024-01-30T00:58:02;25.20;;;10.20;;
22131;SDS011;11232;51.748;19.390;2024-01-30T01:00:28;26.53;;;10.60;;
22131;SDS011;11232;51.748;19.390;2024-01-30T01:03:00;27.50;;;11.00;;
22131;SDS011;11232;51.748;19.390;2024-01-30T01:05:26;31.80;;;10.40;;
22131;SDS011;11232;51.748;19.390;2024-01-30T01:07:52;24.67;;;10.30;;
22131;SDS011;11232;51.748;19.390;2024-01-30T01:10:19;21.13;;;8.90;;
22131;SDS011;11232;51.748;19.390;2024-01-30T01:12:45;25.17;;;9.63;;
22131;SDS011;11232;51.748;19.390;2024-01-30T01:15:11;21.03;;;9.70;;
22131;SDS011;11232;51.748;19.390;2024-01-30T01:17:38;24.47;;;10.27;;
22131;SDS011;11232;51.748;19.390;2024-01-30T01:20:04;24.43;;;10.50;;
22131;SDS011;11232;51.748;19.390;2024-01-30T01:22:31;29.97;;;10.03;;
22131;SDS011;11232;51.748;19.390;2024-01-30T01:24:57;21.33;;;9.37;;
22131;SDS011;11232;51.748;19.390;2024-01-30T01:27:23;28.27;;;10.83;;
22131;SDS011;11232;51.748;19.390;2024-01-30T01:29:50;26.77;;;10.67;;
22131;SDS011;11232;51.748;19.390;2024-01-30T01:32:16;26.63;;;9.80;;
22131;SDS011;11232;51.748;19.390;2024-01-30T01:34:42;21.27;;;9.63;;
22131;SDS011;11232;51.748;19.390;2024-01-30T01:37:08;26.00;;;9.87;;
22131;SDS011;11232;51.748;19.390;2024-01-30T01:39:34;21.20;;;9.33;;
22131;SDS011;11232;51.748;19.390;2024-01-30T01:42:00;22.17;;;8.77;;
22131;SDS011;11232;51.748;19.390;2024-01-30T01:44:26;28.30;;;9.57;;
22131;SDS011;11232;51.748;19.390;2024-01-30T01:46:52;25.67;;;9.77;;
22131;SDS011;11232;51.748;19.390;2024-01-30T01:49:19;22.03;;;9.07;;
22131;SDS011;11232;51.748;19.390;2024-01-30T01:51:45;22.37;;;9.03;;
22131;SDS011;11232;51.748;19.390;2024-01-30T01:54:12;20.57;;;8.93;;
22131;SDS011;11232;51.748;19.390;2024-01-30T01:56:39;21.00;;;8.80;;
22131;SDS011;11232;51.748;19.390;2024-01-30T01:59:06;22.03;;;8.43;;
22131;SDS011;11232;51.748;19.390;2024-01-30T02:01:33;18.27;;;8.10;;
22131;SDS011;11232;51.748;19.390;2024-01-30T02:03:59;23.30;;;9.40;;
22131;SDS011;11232;51.748;19.390;2024-01-30T02:06:26;18.87;;;8.07;;
22131;SDS011;11232;51.748;19.390;2024-01-30T02:08:52;23.70;;;8.43;;
22131;SDS011;11232;51.748;19.390;2024-01-30T02:11:18;17.23;;;7.63;;
22131;SDS011;11232;51.748;19.390;2024-01-30T02:13:44;17.73;;;7.63;;
22131;SDS011;11232;51.748;19.390;2024-01-30T02:16:10;18.70;;;8.23;;
22131;SDS011;11232;51.748;19.390;2024-01-30T02:18:36;17.67;;;8.10;;
22131;SDS011;11232;51.748;19.390;2024-01-30T02:21:07;22.43;;;9.00;;
22131;SDS011;11232;51.748;19.390;2024-01-30T02:23:33;15.20;;;7.17;;
22131;SDS011;11232;51.748;19.390;2024-01-30T02:25:59;21.33;;;7.80;;
22131;SDS011;11232;51.748;19.390;2024-01-30T02:28:25;18.30;;;7.67;;
22131;SDS011;11232;51.748;19.390;2024-01-30T02:30:52;23.37;;;8.47;;
22131;SDS011;11232;51.748;19.390;2024-01-30T02:33:18;18.23;;;7.40;;
22131;SDS011;11232;51.748;19.390;2024-01-30T02:35:44;17.73;;;7.70;;
22131;SDS011;11232;51.748;19.390;2024-01-30T02:38:10;16.97;;;7.27;;
22131;SDS011;11232;51.748;19.390;2024-01-30T02:40:36;20.20;;;7.73;;
22131;SDS011;11232;51.748;19.390;2024-01-30T02:43:02;16.00;;;7.87;;
22131;SDS011;11232;51.748;19.390;2024-01-30T02:45:29;17.20;;;7.50;;
22131;SDS011;11232;51.748;19.390;2024-01-30T02:47:55;15.83;;;7.23;;
22131;SDS011;11232;51.748;19.390;2024-01-30T02:50:21;22.13;;;7.97;;
22131;SDS011;11232;51.748;19.390;2024-01-30T02:52:47;20.23;;;7.17;;
22131;SDS011;11232;51.748;19.390;2024-01-30T02:55:13;18.07;;;7.37;;
22131;SDS011;11232;51.748;19.390;2024-01-30T02:57:39;13.73;;;7.23;;
22131;SDS011;11232;51.748;19.390;2024-01-30T03:00:05;14.60;;;7.27;;
22131;SDS011;11232;51.748;19.390;2024-01-30T03:02:33;17.37;;;6.70;;
22131;SDS011;11232;51.748;19.390;2024-01-30T03:04:59;14.93;;;7.03;;
22131;SDS011;11232;51.748;19.390;2024-01-30T03:07:25;17.27;;;6.93;;
22131;SDS011;11232;51.748;19.390;2024-01-30T03:09:51;20.63;;;7.40;;
22131;SDS011;11232;51.748;19.390;2024-01-30T03:12:17;16.93;;;6.80;;
22131;SDS011;11232;51.748;19.390;2024-01-30T03:14:43;13.10;;;6.70;;
22131;SDS011;11232;51.748;19.390;2024-01-30T03:17:09;18.53;;;7.03;;
22131;SDS011;11232;51.748;19.390;2024-01-30T03:19:35;15.60;;;6.43;;
22131;SDS011;11232;51.748;19.390;2024-01-30T03:22:01;16.87;;;6.73;;
22131;SDS011;11232;51.748;19.390;2024-01-30T03:24:27;16.10;;;7.03;;
22131;SDS011;11232;51.748;19.390;2024-01-30T03:26:53;13.83;;;6.20;;
22131;SDS011;11232;51.748;19.390;2024-01-30T03:29:19;19.60;;;6.53;;
22131;SDS011;11232;51.748;19.390;2024-01-30T03:31:45;18.53;;;7.57;;
22131;SDS011;11232;51.748;19.390;2024-01-30T03:34:11;17.47;;;6.80;;
22131;SDS011;11232;51.748;19.390;2024-01-30T03:36:37;15.67;;;6.37;;
22131;SDS011;11232;51.748;19.390;2024-01-30T03:39:03;16.40;;;6.53;;
22131;SDS011;11232;51.748;19.390;2024-01-30T03:41:29;13.83;;;6.37;;
22131;SDS011;11232;51.748;19.390;2024-01-30T03:43:55;13.93;;;6.07;;
22131;SDS011;11232;51.748;19.390;2024-01-30T03:46:21;18.73;;;7.07;;
22131;SDS011;11232;51.748;19.390;2024-01-30T03:48:47;13.27;;;5.67;;
22131;SDS011;11232;51.748;19.390;2024-01-30T03:51:13;11.73;;;6.07;;
22131;SDS011;11232;51.748;19.390;2024-01-30T03:53:41;11.73;;;5.67;;
22131;SDS011;11232;51.748;19.390;2024-01-30T03:56:07;12.17;;;6.37;;
22131;SDS011;11232;51.748;19.390;2024-01-30T03:58:33;13.03;;;5.97;;
22131;SDS011;11232;51.748;19.390;2024-01-30T04:00:59;14.57;;;5.43;;
22131;SDS011;11232;51.748;19.390;2024-01-30T04:03:25;14.70;;;5.70;;
22131;SDS011;11232;51.748;19.390;2024-01-30T04:05:51;15.67;;;6.70;;
22131;SDS011;11232;51.748;19.390;2024-01-30T04:08:18;11.33;;;5.80;;
22131;SDS011;11232;51.748;19.390;2024-01-30T04:10:43;12.80;;;5.43;;
22131;SDS011;11232;51.748;19.390;2024-01-30T04:13:09;14.40;;;5.90;;
22131;SDS011;11232;51.748;19.390;2024-01-30T04:15:36;10.90;;;5.80;;
22131;SDS011;11232;51.748;19.390;2024-01-30T04:18:02;12.77;;;5.23;;
22131;SDS011;11232;51.748;19.390;2024-01-30T04:20:28;16.23;;;5.77;;
22131;SDS011;11232;51.748;19.390;2024-01-30T04:22:55;11.70;;;6.20;;
22131;SDS011;11232;51.748;19.390;2024-01-30T04:25:21;19.63;;;6.73;;
22131;SDS011;11232;51.748;19.390;2024-01-30T04:27:47;10.47;;;5.57;;
22131;SDS011;11232;51.748;19.390;2024-01-30T04:30:13;13.07;;;6.23;;
22131;SDS011;11232;51.748;19.390;2024-01-30T04:32:39;11.83;;;5.83;;
22131;SDS011;11232;51.748;19.390;2024-01-30T04:35:05;14.40;;;5.43;;
22131;SDS011;11232;51.748;19.390;2024-01-30T04:37:31;12.70;;;6.17;;
22131;SDS011;11232;51.748;19.390;2024-01-30T04:39:57;11.80;;;5.93;;
22131;SDS011;11232;51.748;19.390;2024-01-30T04:42:23;14.23;;;6.10;;
22131;SDS011;11232;51.748;19.390;2024-01-30T04:44:49;14.80;;;5.73;;
22131;SDS011;11232;51.748;19.390;2024-01-30T04:47:15;15.57;;;7.00;;
22131;SDS011;11232;51.748;19.390;2024-01-30T04:49:41;13.60;;;6.30;;
22131;SDS011;11232;51.748;19.390;2024-01-30T04:52:07;17.03;;;6.50;;
22131;SDS011;11232;51.748;19.390;2024-01-30T04:54:34;13.23;;;5.87;;
22131;SDS011;11232;51.748;19.390;2024-01-30T04:57:00;14.63;;;5.97;;
22131;SDS011;11232;51.748;19.390;2024-01-30T04:59:26;13.97;;;5.67;;
22131;SDS011;11232;51.748;19.390;2024-01-30T05:01:53;9.00;;;5.37;;
22131;SDS011;11232;51.748;19.390;2024-01-30T05:04:19;13.80;;;6.63;;
22131;SDS011;11232;51.748;19.390;2024-01-30T05:06:45;13.33;;;6.13;;
22131;SDS011;11232;51.748;19.390;2024-01-30T05:09:11;10.33;;;5.50;;
22131;SDS011;11232;51.748;19.390;2024-01-30T05:11:38;11.83;;;5.87;;
22131;SDS011;11232;51.748;19.390;2024-01-30T05:14:04;11.60;;;5.80;;
22131;SDS011;11232;51.748;19.390;2024-01-30T05:16:30;14.07;;;6.63;;
22131;SDS011;11232;51.748;19.390;2024-01-30T05:18:57;13.77;;;6.13;;
22131;SDS011;11232;51.748;19.390;2024-01-30T05:21:23;15.40;;;7.00;;
22131;SDS011;11232;51.748;19.390;2024-01-30T05:23:49;13.07;;;6.03;;
22131;SDS011;11232;51.748;19.390;2024-01-30T05:26:15;16.03;;;7.53;;
22131;SDS011;11232;51.748;19.390;2024-01-30T05:28:41;17.37;;;6.70;;
22131;SDS011;11232;51.748;19.390;2024-01-30T05:31:09;18.67;;;7.33;;
22131;SDS011;11232;51.748;19.390;2024-01-30T05:33:35;16.50;;;7.53;;
22131;SDS011;11232;51.748;19.390;2024-01-30T05:36:01;19.37;;;7.67;;
22131;SDS011;11232;51.748;19.390;2024-01-30T05:38:30;18.87;;;7.80;;
22131;SDS011;11232;51.748;19.390;2024-01-30T05:40:57;16.47;;;7.53;;
22131;SDS011;11232;51.748;19.390;2024-01-30T05:43:23;15.90;;;7.63;;
22131;SDS011;11232;51.748;19.390;2024-01-30T05:45:49;21.73;;;8.83;;
22131;SDS011;11232;51.748;19.390;2024-01-30T05:48:15;17.03;;;7.27;;
22131;SDS011;11232;51.748;19.390;2024-01-30T05:50:41;22.33;;;8.60;;
22131;SDS011;11232;51.748;19.390;2024-01-30T05:53:07;14.63;;;7.37;;
22131;SDS011;11232;51.748;19.390;2024-01-30T05:55:33;17.27;;;7.97;;
22131;SDS011;11232;51.748;19.390;2024-01-30T05:57:59;14.63;;;7.13;;
22131;SDS011;11232;51.748;19.390;2024-01-30T06:00:27;14.60;;;7.53;;
22131;SDS011;11232;51.748;19.390;2024-01-30T06:02:53;17.27;;;7.50;;
22131;SDS011;11232;51.748;19.390;2024-01-30T06:05:19;17.63;;;7.77;;
22131;SDS011;11232;51.748;19.390;2024-01-30T06:07:45;19.83;;;7.73;;
22131;SDS011;11232;51.748;19.390;2024-01-30T06:10:11;20.17;;;8.23;;
22131;SDS011;11232;51.748;19.390;2024-01-30T06:12:37;17.43;;;7.93;;
22131;SDS011;11232;51.748;19.390;2024-01-30T06:15:03;20.83;;;8.43;;
22131;SDS011;11232;51.748;19.390;2024-01-30T06:17:30;17.73;;;7.63;;
22131;SDS011;11232;51.748;19.390;2024-01-30T06:19:55;16.40;;;7.40;;
22131;SDS011;11232;51.748;19.390;2024-01-30T06:22:21;23.13;;;7.77;;
22131;SDS011;11232;51.748;19.390;2024-01-30T06:24:47;16.20;;;6.87;;
22131;SDS011;11232;51.748;19.390;2024-01-30T06:27:14;14.83;;;7.73;;
22131;SDS011;11232;51.748;19.390;2024-01-30T06:29:40;17.93;;;6.97;;
22131;SDS011;11232;51.748;19.390;2024-01-30T06:32:06;14.70;;;7.47;;
22131;SDS011;11232;51.748;19.390;2024-01-30T06:34:32;15.63;;;7.37;;
22131;SDS011;11232;51.748;19.390;2024-01-30T06:36:58;19.60;;;7.40;;
22131;SDS011;11232;51.748;19.390;2024-01-30T06:39:24;21.47;;;8.27;;
22131;SDS011;11232;51.748;19.390;2024-01-30T06:41:50;17.87;;;7.73;;
22131;SDS011;11232;51.748;19.390;2024-01-30T06:44:16;13.90;;;7.17;;
22131;SDS011;11232;51.748;19.390;2024-01-30T06:46:42;16.40;;;7.17;;
22131;SDS011;11232;51.748;19.390;2024-01-30T06:49:08;16.00;;;7.67;;
22131;SDS011;11232;51.748;19.390;2024-01-30T06:51:34;17.20;;;6.93;;
22131;SDS011;11232;51.748;19.390;2024-01-30T06:54:00;11.37;;;5.97;;
22131;SDS011;11232;51.748;19.390;2024-01-30T06:56:26;15.10;;;7.17;;
22131;SDS011;11232;51.748;19.390;2024-01-30T06:58:52;16.50;;;7.50;;
22131;SDS011;11232;51.748;19.390;2024-01-30T07:01:18;17.87;;;7.40;;
22131;SDS011;11232;51.748;19.390;2024-01-30T07:03:44;14.53;;;7.57;;
22131;SDS011;11232;51.748;19.390;2024-01-30T07:06:10;13.17;;;6.93;;
22131;SDS011;11232;51.748;19.390;2024-01-30T07:08:37;12.90;;;6.77;;
22131;SDS011;11232;51.748;19.390;2024-01-30T07:11:05;12.57;;;6.00;;
22131;SDS011;11232;51.748;19.390;2024-01-30T07:13:32;14.03;;;6.93;;
22131;SDS011;11232;51.748;19.390;2024-01-30T07:15:58;12.87;;;6.23;;
22131;SDS011;11232;51.748;19.390;2024-01-30T07:18:24;14.13;;;6.97;;
22131;SDS011;11232;51.748;19.390;2024-01-30T07:20:50;11.90;;;6.27;;
22131;SDS011;11232;51.748;19.390;2024-01-30T07:23:16;14.50;;;7.10;;
22131;SDS011;11232;51.748;19.390;2024-01-30T07:25:46;15.53;;;7.10;;
22131;SDS011;11232;51.748;19.390;2024-01-30T07:28:14;20.07;;;7.97;;
22131;SDS011;11232;51.748;19.390;2024-01-30T07:30:43;16.20;;;7.43;;
22131;SDS011;11232;51.748;19.390;2024-01-30T07:33:09;12.70;;;7.10;;
22131;SDS011;11232;51.748;19.390;2024-01-30T07:35:35;15.43;;;7.97;;
22131;SDS011;11232;51.748;19.390;2024-01-30T07:38:01;23.37;;;8.37;;
22131;SDS011;11232;51.748;19.390;2024-01-30T07:40:28;19.03;;;8.57;;
22131;SDS011;11232;51.748;19.390;2024-01-30T07:42:54;18.10;;;8.57;;
22131;SDS011;11232;51.748;19.390;2024-01-30T07:45:20;16.47;;;8.77;;
22131;SDS011;11232;51.748;19.390;2024-01-30T07:47:50;14.67;;;8.50;;
22131;SDS011;11232;51.748;19.390;2024-01-30T07:50:16;14.47;;;7.50;;
22131;SDS011;11232;51.748;19.390;2024-01-30T07:52:43;15.65;;;8.35;;
22131;SDS011;11232;51.748;19.390;2024-01-30T07:55:09;15.73;;;8.20;;
22131;SDS011;11232;51.748;19.390;2024-01-30T07:57:38;14.00;;;7.87;;
22131;SDS011;11232;51.748;19.390;2024-01-30T08:00:05;16.50;;;8.02;;
22131;SDS011;11232;51.748;19.390;2024-01-30T08:02:32;13.35;;;7.75;;
22131;SDS011;11232;51.748;19.390;2024-01-30T08:04:58;17.60;;;7.80;;
22131;SDS011;11232;51.748;19.390;2024-01-30T08:07:24;16.70;;;7.97;;
22131;SDS011;11232;51.748;19.390;2024-01-30T08:09:50;13.90;;;7.53;;
22131;SDS011;11232;51.748;19.390;2024-01-30T08:12:16;14.38;;;7.35;;
22131;SDS011;11232;51.748;19.390;2024-01-30T08:14:42;14.70;;;7.47;;
22131;SDS011;11232;51.748;19.390;2024-01-30T08:17:08;14.87;;;7.47;;
22131;SDS011;11232;51.748;19.390;2024-01-30T08:19:34;15.57;;;7.60;;
22131;SDS011;11232;51.748;19.390;2024-01-30T08:22:00;16.93;;;8.53;;
22131;SDS011;11232;51.748;19.390;2024-01-30T08:24:26;15.20;;;8.03;;
22131;SDS011;11232;51.748;19.390;2024-01-30T08:26:52;13.67;;;7.70;;
22131;SDS011;11232;51.748;19.390;2024-01-30T08:29:18;16.03;;;7.93;;
22131;SDS011;11232;51.748;19.390;2024-01-30T08:32:13;14.50;;;7.83;;
22131;SDS011;11232;51.748;19.390;2024-01-30T08:34:39;15.07;;;8.47;;
22131;SDS011;11232;51.748;19.390;2024-01-30T08:37:05;14.77;;;7.83;;
22131;SDS011;11232;51.748;19.390;2024-01-30T08:39:31;14.20;;;7.10;;
22131;SDS011;11232;51.748;19.390;2024-01-30T08:41:57;15.93;;;8.07;;
22131;SDS011;11232;51.748;19.390;2024-01-30T08:44:23;14.27;;;7.67;;
22131;SDS011;11232;51.748;19.390;2024-01-30T08:46:49;17.87;;;8.20;;
22131;SDS011;11232;51.748;19.390;2024-01-30T08:49:19;15.23;;;7.90;;
22131;SDS011;11232;51.748;19.390;2024-01-30T08:51:45;16.47;;;7.73;;
22131;SDS011;11232;51.748;19.390;2024-01-30T08:54:12;17.83;;;8.00;;
22131;SDS011;11232;51.748;19.390;2024-01-30T08:56:38;16.47;;;7.87;;
22131;SDS011;11232;51.748;19.390;2024-01-30T08:59:04;17.27;;;7.80;;
22131;SDS011;11232;51.748;19.390;2024-01-30T09:01:30;14.67;;;7.60;;
22131;SDS011;11232;51.748;19.390;2024-01-30T09:03:56;14.83;;;7.10;;
22131;SDS011;11232;51.748;19.390;2024-01-30T09:06:22;19.77;;;7.17;;
22131;SDS011;11232;51.748;19.390;2024-01-30T09:08:49;13.82;;;7.38;;
22131;SDS011;11232;51.748;19.390;2024-01-30T09:11:15;18.02;;;7.82;;
22131;SDS011;11232;51.748;19.390;2024-01-30T09:13:41;18.73;;;8.55;;
22131;SDS011;11232;51.748;19.390;2024-01-30T09:16:08;14.30;;;7.78;;
22131;SDS011;11232;51.748;19.390;2024-01-30T09:18:34;17.50;;;8.65;;
22131;SDS011;11232;51.748;19.390;2024-01-30T09:21:00;20.73;;;8.27;;
22131;SDS011;11232;51.748;19.390;2024-01-30T09:23:29;18.33;;;8.52;;
22131;SDS011;11232;51.748;19.390;2024-01-30T09:25:55;15.50;;;8.23;;
22131;SDS011;11232;51.748;19.390;2024-01-30T09:28:22;19.58;;;9.35;;
22131;SDS011;11232;51.748;19.390;2024-01-30T09:30:48;15.35;;;8.95;;
22131;SDS011;11232;51.748;19.390;2024-01-30T09:33:13;15.77;;;8.65;;
22131;SDS011;11232;51.748;19.390;2024-01-30T09:35:39;18.48;;;9.52;;
22131;SDS011;11232;51.748;19.390;2024-01-30T09:38:05;17.05;;;10.18;;
22131;SDS011;11232;51.748;19.390;2024-01-30T09:40:31;23.33;;;12.10;;
22131;SDS011;11232;51.748;19.390;2024-01-30T09:42:58;23.83;;;13.55;;
22131;SDS011;11232;51.748;19.390;2024-01-30T09:45:27;19.33;;;10.13;;
22131;SDS011;11232;51.748;19.390;2024-01-30T09:47:53;23.02;;;10.82;;
22131;SDS011;11232;51.748;19.390;2024-01-30T09:50:19;19.10;;;10.48;;
22131;SDS011;11232;51.748;19.390;2024-01-30T09:52:46;22.60;;;10.95;;
22131;SDS011;11232;51.748;19.390;2024-01-30T09:55:12;21.58;;;12.35;;
22131;SDS011;11232;51.748;19.390;2024-01-30T09:57:38;16.95;;;9.50;;
22131;SDS011;11232;51.748;19.390;2024-01-30T10:00:05;19.35;;;10.43;;
22131;SDS011;11232;51.748;19.390;2024-01-30T10:02:35;21.85;;;11.18;;
22131;SDS011;11232;51.748;19.390;2024-01-30T10:05:01;18.33;;;10.05;;
22131;SDS011;11232;51.748;19.390;2024-01-30T10:07:27;16.35;;;9.43;;
22131;SDS011;11232;51.748;19.390;2024-01-30T10:09:53;14.48;;;8.45;;
22131;SDS011;11232;51.748;19.390;2024-01-30T10:12:22;17.70;;;9.35;;
22131;SDS011;11232;51.748;19.390;2024-01-30T10:14:48;18.00;;;9.60;;
22131;SDS011;11232;51.748;19.390;2024-01-30T10:17:14;18.67;;;10.15;;
22131;SDS011;11232;51.748;19.390;2024-01-30T10:19:41;17.70;;;9.50;;
22131;SDS011;11232;51.748;19.390;2024-01-30T10:22:07;17.60;;;9.13;;
22131;SDS011;11232;51.748;19.390;2024-01-30T10:24:33;17.33;;;8.90;;
22131;SDS011;11232;51.748;19.390;2024-01-30T10:26:59;14.13;;;9.20;;
22131;SDS011;11232;51.748;19.390;2024-01-30T10:29:26;20.70;;;9.48;;
22131;SDS011;11232;51.748;19.390;2024-01-30T10:31:59;15.45;;;8.93;;
22131;SDS011;11232;51.748;19.390;2024-01-30T10:34:25;16.63;;;9.00;;
22131;SDS011;11232;51.748;19.390;2024-01-30T10:36:55;16.10;;;9.63;;
22131;SDS011;11232;51.748;19.390;2024-01-30T10:39:24;16.75;;;9.10;;
22131;SDS011;11232;51.748;19.390;2024-01-30T10:41:50;17.00;;;8.95;;
22131;SDS011;11232;51.748;19.390;2024-01-30T10:44:19;15.88;;;8.93;;
22131;SDS011;11232;51.748;19.390;2024-01-30T10:46:45;14.77;;;7.95;;
22131;SDS011;11232;51.748;19.390;2024-01-30T10:49:15;13.90;;;8.25;;
22131;SDS011;11232;51.748;19.390;2024-01-30T10:51:42;14.43;;;8.23;;
22131;SDS011;11232;51.748;19.390;2024-01-30T10:54:08;12.20;;;8.07;;
22131;SDS011;11232;51.748;19.390;2024-01-30T10:56:35;12.75;;;8.02;;
22131;SDS011;11232;51.748;19.390;2024-01-30T10:59:01;16.25;;;7.53;;
22131;SDS011;11232;51.748;19.390;2024-01-30T11:01:28;16.10;;;8.00;;
22131;SDS011;11232;51.748;19.390;2024-01-30T11:03:55;16.40;;;8.57;;
22131;SDS011;11232;51.748;19.390;2024-01-30T11:06:22;15.98;;;7.95;;
22131;SDS011;11232;51.748;19.390;2024-01-30T11:09:01;17.60;;;7.95;;
22131;SDS011;11232;51.748;19.390;2024-01-30T11:11:28;19.58;;;8.32;;
22131;SDS011;11232;51.748;19.390;2024-01-30T11:13:54;15.32;;;8.85;;
22131;SDS011;11232;51.748;19.390;2024-01-30T11:16:20;16.85;;;8.18;;
22131;SDS011;11232;51.748;19.390;2024-01-30T11:18:51;10.77;;;7.53;;
22131;SDS011;11232;51.748;19.390;2024-01-30T11:21:17;14.82;;;8.75;;
22131;SDS011;11232;51.748;19.390;2024-01-30T11:23:43;13.90;;;8.38;;
22131;SDS011;11232;51.748;19.390;2024-01-30T11:26:11;17.98;;;8.20;;
22131;SDS011;11232;51.748;19.390;2024-01-30T11:28:37;17.55;;;7.45;;
22131;SDS011;11232;51.748;19.390;2024-01-30T11:31:07;15.23;;;8.52;;
22131;SDS011;11232;51.748;19.390;2024-01-30T11:33:33;15.73;;;7.38;;
22131;SDS011;11232;51.748;19.390;2024-01-30T11:35:59;16.98;;;8.15;;
22131;SDS011;11232;51.748;19.390;2024-01-30T11:38:26;18.98;;;7.88;;
22131;SDS011;11232;51.748;19.390;2024-01-30T11:40:52;16.40;;;8.23;;
22131;SDS011;11232;51.748;19.390;2024-01-30T11:43:19;14.65;;;8.10;;
22131;SDS011;11232;51.748;19.390;2024-01-30T11:45:45;20.13;;;7.43;;
22131;SDS011;11232;51.748;19.390;2024-01-30T11:48:11;17.38;;;8.38;;
22131;SDS011;11232;51.748;19.390;2024-01-30T11:50:38;13.70;;;7.65;;
22131;SDS011;11232;51.748;19.390;2024-01-30T11:53:04;15.80;;;8.18;;
22131;SDS011;11232;51.748;19.390;2024-01-30T11:55:30;17.75;;;9.02;;
22131;SDS011;11232;51.748;19.390;2024-01-30T11:57:57;14.05;;;8.15;;
22131;SDS011;11232;51.748;19.390;2024-01-30T12:00:24;17.75;;;8.60;;
22131;SDS011;11232;51.748;19.390;2024-01-30T12:02:50;15.57;;;7.95;;
22131;SDS011;11232;51.748;19.390;2024-01-30T12:05:19;13.75;;;7.78;;
22131;SDS011;11232;51.748;19.390;2024-01-30T12:07:45;14.48;;;7.90;;
22131;SDS011;11232;51.748;19.390;2024-01-30T12:10:12;15.68;;;8.02;;
22131;SDS011;11232;51.748;19.390;2024-01-30T12:12:43;14.00;;;7.80;;
22131;SDS011;11232;51.748;19.390;2024-01-30T12:15:10;14.07;;;7.03;;
22131;SDS011;11232;51.748;19.390;2024-01-30T12:17:36;14.65;;;8.05;;
22131;SDS011;11232;51.748;19.390;2024-01-30T12:20:02;19.30;;;8.90;;
22131;SDS011;11232;51.748;19.390;2024-01-30T12:22:29;16.53;;;8.70;;
22131;SDS011;11232;51.748;19.390;2024-01-30T12:24:56;19.27;;;8.30;;
22131;SDS011;11232;51.748;19.390;2024-01-30T12:27:22;14.00;;;8.20;;
22131;SDS011;11232;51.748;19.390;2024-01-30T12:29:55;16.75;;;8.07;;
22131;SDS011;11232;51.748;19.390;2024-01-30T12:32:22;14.65;;;8.23;;
22131;SDS011;11232;51.748;19.390;2024-01-30T12:34:54;16.42;;;8.88;;
22131;SDS011;11232;51.748;19.390;2024-01-30T12:37:20;17.85;;;8.55;;
22131;SDS011;11232;51.748;19.390;2024-01-30T12:39:48;13.82;;;7.95;;
22131;SDS011;11232;51.748;19.390;2024-01-30T12:42:18;16.73;;;7.70;;
22131;SDS011;11232;51.748;19.390;2024-01-30T12:44:46;17.10;;;8.43;;
22131;SDS011;11232;51.748;19.390;2024-01-30T12:47:15;20.20;;;8.17;;
22131;SDS011;11232;51.748;19.390;2024-01-30T12:49:44;17.63;;;9.00;;
22131;SDS011;11232;51.748;19.390;2024-01-30T12:52:11;12.47;;;7.60;;
22131;SDS011;11232;51.748;19.390;2024-01-30T12:54:37;16.60;;;7.60;;
22131;SDS011;11232;51.748;19.390;2024-01-30T12:57:04;13.47;;;7.00;;
22131;SDS011;11232;51.748;19.390;2024-01-30T12:59:32;17.03;;;7.70;;
22131;SDS011;11232;51.748;19.390;2024-01-30T13:02:00;16.63;;;7.53;;
22131;SDS011;11232;51.748;19.390;2024-01-30T13:04:29;17.17;;;8.23;;
22131;SDS011;11232;51.748;19.390;2024-01-30T13:06:55;16.63;;;7.70;;
22131;SDS011;11232;51.748;19.390;2024-01-30T13:09:21;16.50;;;7.00;;
22131;SDS011;11232;51.748;19.390;2024-01-30T13:11:54;14.37;;;7.90;;
22131;SDS011;11232;51.748;19.390;2024-01-30T13:14:20;14.40;;;7.23;;
22131;SDS011;11232;51.748;19.390;2024-01-30T13:16:49;15.20;;;8.00;;
22131;SDS011;11232;51.748;19.390;2024-01-30T13:19:16;16.43;;;7.97;;
22131;SDS011;11232;51.748;19.390;2024-01-30T13:21:42;18.53;;;8.33;;
22131;SDS011;11232;51.748;19.390;2024-01-30T13:24:08;18.07;;;7.83;;
22131;SDS011;11232;51.748;19.390;2024-01-30T13:26:34;14.43;;;7.60;;
22131;SDS011;11232;51.748;19.390;2024-01-30T13:29:03;14.60;;;7.80;;
22131;SDS011;11232;51.748;19.390;2024-01-30T13:31:29;16.50;;;7.77;;
22131;SDS011;11232;51.748;19.390;2024-01-30T13:33:56;16.97;;;8.00;;
22131;SDS011;11232;51.748;19.390;2024-01-30T13:36:22;13.07;;;7.27;;
22131;SDS011;11232;51.748;19.390;2024-01-30T13:38:48;16.80;;;7.80;;
22131;SDS011;11232;51.748;19.390;2024-01-30T13:41:17;18.80;;;7.97;;
22131;SDS011;11232;51.748;19.390;2024-01-30T13:43:44;18.40;;;7.93;;
22131;SDS011;11232;51.748;19.390;2024-01-30T13:46:10;16.53;;;7.23;;
22131;SDS011;11232;51.748;19.390;2024-01-30T13:48:36;11.60;;;6.77;;
22131;SDS011;11232;51.748;19.390;2024-01-30T13:51:08;17.53;;;8.40;;
22131;SDS011;11232;51.748;19.390;2024-01-30T13:53:36;15.77;;;7.93;;
22131;SDS011;11232;51.748;19.390;2024-01-30T13:56:02;15.23;;;7.73;;
22131;SDS011;11232;51.748;19.390;2024-01-30T13:58:28;15.00;;;7.33;;
22131;SDS011;11232;51.748;19.390;2024-01-30T14:00:54;16.80;;;7.93;;
22131;SDS011;11232;51.748;19.390;2024-01-30T14:03:20;15.63;;;7.53;;
22131;SDS011;11232;51.748;19.390;2024-01-30T14:05:47;14.17;;;6.97;;
22131;SDS011;11232;51.748;19.390;2024-01-30T14:08:13;11.67;;;6.87;;
22131;SDS011;11232;51.748;19.390;2024-01-30T14:10:39;16.60;;;6.97;;
22131;SDS011;11232;51.748;19.390;2024-01-30T14:13:05;14.47;;;7.30;;
22131;SDS011;11232;51.748;19.390;2024-01-30T14:15:37;19.07;;;7.33;;
22131;SDS011;11232;51.748;19.390;2024-01-30T14:18:04;15.13;;;7.53;;